Riverton, Wyoming
Current Conditions -  °F | °C
As of 4:53 AM on Saturday 25 Oct 2014 (Local Time) from KRIW Reporting Station
Clear Clear  
Wind Chill:   Ceiling: Unl
Heat Index:   Visibility: 10mi
Dew Point: -7°   Wind: 0mph
Humidity: 38%   Direction: NA
Pressure: 30.17"   Gusts: NA
Location:  43.02°N, 108.38°W
Report Text: KRIW 251053Z AUTO 00000KT 10SM CLR 06/M07 A3017 RMK AO2 SLP170 T00611072
Loading
Personal Weather Stations






























Interactive Weather Map New forecast layout! Learn more

10-Day Weather Forecast

Advertisements
Track Severe Weather on mobile